sensor_id;sensor_type;location;lat;lon;timestamp;P1;durP1;ratioP1;P2;durP2;ratioP2
43676;SDS011;29275;48.800;18.102;2023-02-28T00:00:37;2.38;;;1.02;;
43676;SDS011;29275;48.800;18.102;2023-02-28T00:03:40;4.38;;;1.80;;
43676;SDS011;29275;48.800;18.102;2023-02-28T00:06:42;1.77;;;1.00;;
43676;SDS011;29275;48.800;18.102;2023-02-28T00:09:45;2.85;;;1.10;;
43676;SDS011;29275;48.800;18.102;2023-02-28T00:12:48;1.52;;;0.90;;
43676;SDS011;29275;48.800;18.102;2023-02-28T00:16:00;3.05;;;1.50;;
43676;SDS011;29275;48.800;18.102;2023-02-28T00:19:07;26.10;;;2.35;;
43676;SDS011;29275;48.800;18.102;2023-02-28T00:22:10;1.80;;;0.90;;
43676;SDS011;29275;48.800;18.102;2023-02-28T00:25:18;3.00;;;2.05;;
43676;SDS011;29275;48.800;18.102;2023-02-28T00:28:23;4.15;;;2.20;;
43676;SDS011;29275;48.800;18.102;2023-02-28T00:31:26;19.08;;;8.90;;
43676;SDS011;29275;48.800;18.102;2023-02-28T00:34:29;38.65;;;23.58;;
43676;SDS011;29275;48.800;18.102;2023-02-28T00:37:31;11.55;;;6.55;;
43676;SDS011;29275;48.800;18.102;2023-02-28T00:40:35;4.20;;;2.85;;
43676;SDS011;29275;48.800;18.102;2023-02-28T00:43:39;5.03;;;2.13;;
43676;SDS011;29275;48.800;18.102;2023-02-28T00:46:42;4.13;;;1.52;;
43676;SDS011;29275;48.800;18.102;2023-02-28T00:49:44;2.95;;;1.10;;
43676;SDS011;29275;48.800;18.102;2023-02-28T00:52:47;4.28;;;3.08;;
43676;SDS011;29275;48.800;18.102;2023-02-28T00:55:50;8.48;;;6.07;;
43676;SDS011;29275;48.800;18.102;2023-02-28T00:58:52;3.20;;;1.20;;
43676;SDS011;29275;48.800;18.102;2023-02-28T01:01:55;2.78;;;0.90;;
43676;SDS011;29275;48.800;18.102;2023-02-28T01:04:58;2.60;;;1.50;;
43676;SDS011;29275;48.800;18.102;2023-02-28T01:08:04;44.20;;;26.90;;
43676;SDS011;29275;48.800;18.102;2023-02-28T01:11:10;7.95;;;5.05;;
43676;SDS011;29275;48.800;18.102;2023-02-28T01:14:15;24.35;;;17.17;;
43676;SDS011;29275;48.800;18.102;2023-02-28T01:17:20;22.55;;;12.90;;
43676;SDS011;29275;48.800;18.102;2023-02-28T01:20:22;23.60;;;12.95;;
43676;SDS011;29275;48.800;18.102;2023-02-28T01:23:25;11.60;;;6.07;;
43676;SDS011;29275;48.800;18.102;2023-02-28T01:26:28;11.00;;;6.53;;
43676;SDS011;29275;48.800;18.102;2023-02-28T01:29:31;14.30;;;7.28;;
43676;SDS011;29275;48.800;18.102;2023-02-28T01:32:34;3.45;;;1.77;;
43676;SDS011;29275;48.800;18.102;2023-02-28T01:35:38;1.77;;;0.95;;
43676;SDS011;29275;48.800;18.102;2023-02-28T01:38:41;2.53;;;1.40;;
43676;SDS011;29275;48.800;18.102;2023-02-28T01:41:44;1.83;;;0.82;;
43676;SDS011;29275;48.800;18.102;2023-02-28T01:48:05;22.55;;;13.25;;
43676;SDS011;29275;48.800;18.102;2023-02-28T01:51:15;19.05;;;9.45;;
43676;SDS011;29275;48.800;18.102;2023-02-28T01:54:23;6.18;;;3.33;;
43676;SDS011;29275;48.800;18.102;2023-02-28T01:57:29;3.40;;;1.00;;
43676;SDS011;29275;48.800;18.102;2023-02-28T02:00:39;3.20;;;1.65;;
43676;SDS011;29275;48.800;18.102;2023-02-28T02:03:44;1.88;;;1.30;;
43676;SDS011;29275;48.800;18.102;2023-02-28T02:06:47;1.27;;;0.90;;
43676;SDS011;29275;48.800;18.102;2023-02-28T02:09:56;1.42;;;1.15;;
43676;SDS011;29275;48.800;18.102;2023-02-28T02:20:50;1.40;;;0.75;;
43676;SDS011;29275;48.800;18.102;2023-02-28T02:30:10;4.90;;;3.60;;
43676;SDS011;29275;48.800;18.102;2023-02-28T02:36:45;2.42;;;1.67;;
43676;SDS011;29275;48.800;18.102;2023-02-28T02:40:16;9.45;;;4.38;;
43676;SDS011;29275;48.800;18.102;2023-02-28T02:46:55;4.80;;;1.60;;
43676;SDS011;29275;48.800;18.102;2023-02-28T02:50:02;3.17;;;1.73;;
43676;SDS011;29275;48.800;18.102;2023-02-28T02:53:08;1.83;;;1.10;;
43676;SDS011;29275;48.800;18.102;2023-02-28T02:56:12;6.47;;;1.75;;
43676;SDS011;29275;48.800;18.102;2023-02-28T02:59:17;18.13;;;8.05;;
43676;SDS011;29275;48.800;18.102;2023-02-28T03:02:23;5.32;;;2.63;;
43676;SDS011;29275;48.800;18.102;2023-02-28T03:05:30;3.75;;;1.92;;
43676;SDS011;29275;48.800;18.102;2023-02-28T03:08:37;2.92;;;1.88;;
43676;SDS011;29275;48.800;18.102;2023-02-28T03:11:40;36.65;;;23.63;;
43676;SDS011;29275;48.800;18.102;2023-02-28T03:19:10;46.00;;;26.30;;
43676;SDS011;29275;48.800;18.102;2023-02-28T03:21:48;26.23;;;18.33;;
43676;SDS011;29275;48.800;18.102;2023-02-28T03:25:13;14.65;;;9.45;;
43676;SDS011;29275;48.800;18.102;2023-02-28T03:31:39;15.73;;;8.93;;
43676;SDS011;29275;48.800;18.102;2023-02-28T03:34:46;14.23;;;9.70;;
43676;SDS011;29275;48.800;18.102;2023-02-28T03:37:52;18.25;;;10.48;;
43676;SDS011;29275;48.800;18.102;2023-02-28T03:41:19;16.17;;;9.10;;
43676;SDS011;29275;48.800;18.102;2023-02-28T03:44:25;11.30;;;5.80;;
43676;SDS011;29275;48.800;18.102;2023-02-28T03:47:32;13.45;;;4.82;;
43676;SDS011;29275;48.800;18.102;2023-02-28T03:50:39;8.35;;;4.53;;
43676;SDS011;29275;48.800;18.102;2023-02-28T03:53:47;10.43;;;4.22;;
43676;SDS011;29275;48.800;18.102;2023-02-28T03:56:55;3.60;;;2.08;;
43676;SDS011;29275;48.800;18.102;2023-02-28T04:00:07;4.57;;;2.33;;
43676;SDS011;29275;48.800;18.102;2023-02-28T04:03:14;11.70;;;3.95;;
43676;SDS011;29275;48.800;18.102;2023-02-28T04:06:18;7.45;;;2.42;;
43676;SDS011;29275;48.800;18.102;2023-02-28T04:09:22;5.00;;;2.10;;
43676;SDS011;29275;48.800;18.102;2023-02-28T04:12:25;4.93;;;1.73;;
43676;SDS011;29275;48.800;18.102;2023-02-28T04:15:28;17.98;;;6.22;;
43676;SDS011;29275;48.800;18.102;2023-02-28T04:18:31;7.20;;;3.30;;
43676;SDS011;29275;48.800;18.102;2023-02-28T04:21:35;4.93;;;3.45;;
43676;SDS011;29275;48.800;18.102;2023-02-28T04:24:41;17.65;;;7.63;;
43676;SDS011;29275;48.800;18.102;2023-02-28T04:27:44;10.35;;;5.03;;
43676;SDS011;29275;48.800;18.102;2023-02-28T04:30:47;4.18;;;1.02;;
43676;SDS011;29275;48.800;18.102;2023-02-28T04:33:49;24.00;;;8.80;;
43676;SDS011;29275;48.800;18.102;2023-02-28T04:36:52;8.27;;;3.78;;
43676;SDS011;29275;48.800;18.102;2023-02-28T04:40:13;6.07;;;2.42;;
43676;SDS011;29275;48.800;18.102;2023-02-28T04:43:16;14.18;;;4.63;;
43676;SDS011;29275;48.800;18.102;2023-02-28T04:46:19;2.03;;;0.98;;
43676;SDS011;29275;48.800;18.102;2023-02-28T04:49:22;2.60;;;1.75;;
43676;SDS011;29275;48.800;18.102;2023-02-28T04:52:24;1.27;;;1.00;;
43676;SDS011;29275;48.800;18.102;2023-02-28T04:55:29;3.25;;;1.73;;
43676;SDS011;29275;48.800;18.102;2023-02-28T04:58:32;4.65;;;1.58;;
43676;SDS011;29275;48.800;18.102;2023-02-28T05:01:36;2.72;;;1.30;;
43676;SDS011;29275;48.800;18.102;2023-02-28T05:04:38;3.05;;;1.30;;
43676;SDS011;29275;48.800;18.102;2023-02-28T05:07:41;3.33;;;1.90;;
43676;SDS011;29275;48.800;18.102;2023-02-28T05:10:44;1.88;;;1.05;;
43676;SDS011;29275;48.800;18.102;2023-02-28T05:13:47;2.03;;;1.02;;
43676;SDS011;29275;48.800;18.102;2023-02-28T05:16:50;2.50;;;1.25;;
43676;SDS011;29275;48.800;18.102;2023-02-28T05:19:52;3.80;;;2.05;;
43676;SDS011;29275;48.800;18.102;2023-02-28T05:23:02;1.40;;;1.02;;
43676;SDS011;29275;48.800;18.102;2023-02-28T05:26:05;2.83;;;1.55;;
43676;SDS011;29275;48.800;18.102;2023-02-28T05:29:08;3.58;;;1.45;;
43676;SDS011;29275;48.800;18.102;2023-02-28T05:32:11;6.03;;;2.15;;
43676;SDS011;29275;48.800;18.102;2023-02-28T05:35:14;3.13;;;1.20;;
43676;SDS011;29275;48.800;18.102;2023-02-28T05:38:17;7.25;;;3.75;;
43676;SDS011;29275;48.800;18.102;2023-02-28T05:41:20;3.28;;;1.63;;
43676;SDS011;29275;48.800;18.102;2023-02-28T05:44:23;2.03;;;0.90;;
43676;SDS011;29275;48.800;18.102;2023-02-28T05:47:26;1.10;;;0.68;;
43676;SDS011;29275;48.800;18.102;2023-02-28T05:50:29;0.70;;;0.60;;
43676;SDS011;29275;48.800;18.102;2023-02-28T05:53:31;2.45;;;1.42;;
43676;SDS011;29275;48.800;18.102;2023-02-28T05:56:34;1.98;;;1.20;;
43676;SDS011;29275;48.800;18.102;2023-02-28T05:59:37;2.25;;;1.77;;
43676;SDS011;29275;48.800;18.102;2023-02-28T06:02:42;2.92;;;1.35;;
43676;SDS011;29275;48.800;18.102;2023-02-28T06:05:44;3.65;;;1.77;;
43676;SDS011;29275;48.800;18.102;2023-02-28T06:08:47;2.65;;;1.55;;
43676;SDS011;29275;48.800;18.102;2023-02-28T06:11:50;1.63;;;1.10;;
43676;SDS011;29275;48.800;18.102;2023-02-28T06:14:53;2.55;;;1.27;;
43676;SDS011;29275;48.800;18.102;2023-02-28T06:17:56;4.30;;;1.77;;
43676;SDS011;29275;48.800;18.102;2023-02-28T06:20:58;2.60;;;0.95;;
43676;SDS011;29275;48.800;18.102;2023-02-28T06:24:01;3.25;;;1.55;;
43676;SDS011;29275;48.800;18.102;2023-02-28T06:27:04;2.03;;;1.40;;
43676;SDS011;29275;48.800;18.102;2023-02-28T06:30:07;11.40;;;2.50;;
43676;SDS011;29275;48.800;18.102;2023-02-28T06:33:11;2.80;;;1.98;;
43676;SDS011;29275;48.800;18.102;2023-02-28T06:36:15;4.68;;;2.70;;
43676;SDS011;29275;48.800;18.102;2023-02-28T06:39:18;2.60;;;2.00;;
43676;SDS011;29275;48.800;18.102;2023-02-28T06:42:22;5.63;;;2.30;;
43676;SDS011;29275;48.800;18.102;2023-02-28T06:45:31;6.63;;;1.95;;
43676;SDS011;29275;48.800;18.102;2023-02-28T06:48:34;5.45;;;2.22;;
43676;SDS011;29275;48.800;18.102;2023-02-28T06:51:38;4.38;;;2.20;;
43676;SDS011;29275;48.800;18.102;2023-02-28T06:54:42;4.55;;;2.00;;
43676;SDS011;29275;48.800;18.102;2023-02-28T06:57:44;6.97;;;2.70;;
43676;SDS011;29275;48.800;18.102;2023-02-28T07:00:50;7.80;;;3.95;;
43676;SDS011;29275;48.800;18.102;2023-02-28T07:03:53;3.58;;;2.50;;
43676;SDS011;29275;48.800;18.102;2023-02-28T07:06:56;7.05;;;2.72;;
43676;SDS011;29275;48.800;18.102;2023-02-28T07:10:00;6.10;;;2.92;;
43676;SDS011;29275;48.800;18.102;2023-02-28T07:13:04;4.80;;;3.10;;
43676;SDS011;29275;48.800;18.102;2023-02-28T07:16:09;4.88;;;3.05;;
43676;SDS011;29275;48.800;18.102;2023-02-28T07:19:12;4.40;;;2.50;;
43676;SDS011;29275;48.800;18.102;2023-02-28T07:22:15;4.22;;;2.70;;
43676;SDS011;29275;48.800;18.102;2023-02-28T07:25:18;6.38;;;2.83;;
43676;SDS011;29275;48.800;18.102;2023-02-28T07:28:21;4.10;;;2.15;;
43676;SDS011;29275;48.800;18.102;2023-02-28T07:31:24;3.38;;;2.08;;
43676;SDS011;29275;48.800;18.102;2023-02-28T07:34:26;3.65;;;1.92;;
43676;SDS011;29275;48.800;18.102;2023-02-28T07:37:29;4.68;;;2.17;;
43676;SDS011;29275;48.800;18.102;2023-02-28T07:40:34;5.85;;;2.17;;
43676;SDS011;29275;48.800;18.102;2023-02-28T07:43:38;5.32;;;1.92;;
43676;SDS011;29275;48.800;18.102;2023-02-28T07:46:40;9.73;;;4.03;;
43676;SDS011;29275;48.800;18.102;2023-02-28T07:49:44;2.55;;;1.17;;
43676;SDS011;29275;48.800;18.102;2023-02-28T07:52:47;4.22;;;2.53;;
43676;SDS011;29275;48.800;18.102;2023-02-28T07:55:50;5.57;;;2.95;;
43676;SDS011;29275;48.800;18.102;2023-02-28T07:58:53;3.70;;;1.92;;
43676;SDS011;29275;48.800;18.102;2023-02-28T08:01:56;5.90;;;2.40;;
43676;SDS011;29275;48.800;18.102;2023-02-28T08:04:59;6.45;;;2.20;;
43676;SDS011;29275;48.800;18.102;2023-02-28T08:08:03;3.00;;;1.55;;
43676;SDS011;29275;48.800;18.102;2023-02-28T08:11:06;3.22;;;2.08;;
43676;SDS011;29275;48.800;18.102;2023-02-28T08:14:08;3.78;;;2.70;;
43676;SDS011;29275;48.800;18.102;2023-02-28T08:17:11;5.88;;;2.92;;
43676;SDS011;29275;48.800;18.102;2023-02-28T08:20:15;8.50;;;2.60;;
43676;SDS011;29275;48.800;18.102;2023-02-28T08:23:18;3.85;;;2.38;;
43676;SDS011;29275;48.800;18.102;2023-02-28T08:26:21;4.63;;;2.75;;
43676;SDS011;29275;48.800;18.102;2023-02-28T08:29:24;8.27;;;3.42;;
43676;SDS011;29275;48.800;18.102;2023-02-28T08:32:28;3.30;;;1.90;;
43676;SDS011;29275;48.800;18.102;2023-02-28T08:35:31;5.43;;;1.95;;
43676;SDS011;29275;48.800;18.102;2023-02-28T08:38:35;8.10;;;2.90;;
43676;SDS011;29275;48.800;18.102;2023-02-28T08:41:38;5.20;;;3.05;;
43676;SDS011;29275;48.800;18.102;2023-02-28T08:44:41;6.25;;;2.83;;
43676;SDS011;29275;48.800;18.102;2023-02-28T08:47:43;6.93;;;3.75;;
43676;SDS011;29275;48.800;18.102;2023-02-28T08:50:59;8.55;;;3.08;;
43676;SDS011;29275;48.800;18.102;2023-02-28T08:54:09;4.38;;;2.33;;
43676;SDS011;29275;48.800;18.102;2023-02-28T08:57:14;7.90;;;2.28;;
43676;SDS011;29275;48.800;18.102;2023-02-28T09:00:17;4.53;;;2.72;;
43676;SDS011;29275;48.800;18.102;2023-02-28T09:03:21;10.13;;;2.75;;
43676;SDS011;29275;48.800;18.102;2023-02-28T09:06:26;4.82;;;2.75;;
43676;SDS011;29275;48.800;18.102;2023-02-28T09:09:30;6.97;;;3.22;;
43676;SDS011;29275;48.800;18.102;2023-02-28T09:12:34;4.20;;;2.17;;
43676;SDS011;29275;48.800;18.102;2023-02-28T09:15:38;4.85;;;2.90;;
43676;SDS011;29275;48.800;18.102;2023-02-28T09:18:41;4.80;;;2.85;;
43676;SDS011;29275;48.800;18.102;2023-02-28T09:21:44;5.75;;;2.95;;
43676;SDS011;29275;48.800;18.102;2023-02-28T09:24:46;5.53;;;2.53;;
43676;SDS011;29275;48.800;18.102;2023-02-28T09:27:49;7.93;;;2.80;;
43676;SDS011;29275;48.800;18.102;2023-02-28T09:30:53;13.70;;;3.13;;
43676;SDS011;29275;48.800;18.102;2023-02-28T09:33:56;8.25;;;2.90;;
43676;SDS011;29275;48.800;18.102;2023-02-28T09:36:59;6.18;;;3.13;;
43676;SDS011;29275;48.800;18.102;2023-02-28T09:40:02;6.15;;;2.20;;
43676;SDS011;29275;48.800;18.102;2023-02-28T09:43:05;8.82;;;2.70;;
43676;SDS011;29275;48.800;18.102;2023-02-28T09:46:18;7.32;;;2.80;;
43676;SDS011;29275;48.800;18.102;2023-02-28T09:49:31;5.43;;;2.53;;
43676;SDS011;29275;48.800;18.102;2023-02-28T09:52:40;8.68;;;2.72;;
43676;SDS011;29275;48.800;18.102;2023-02-28T09:55:45;6.07;;;3.63;;
43676;SDS011;29275;48.800;18.102;2023-02-28T10:05:35;8.57;;;2.47;;
43676;SDS011;29275;48.800;18.102;2023-02-28T10:12:08;4.55;;;2.58;;
43676;SDS011;29275;48.800;18.102;2023-02-28T10:15:15;6.18;;;3.10;;
43676;SDS011;29275;48.800;18.102;2023-02-28T10:18:21;5.60;;;3.30;;
43676;SDS011;29275;48.800;18.102;2023-02-28T10:21:33;5.32;;;2.25;;
43676;SDS011;29275;48.800;18.102;2023-02-28T10:24:45;12.07;;;3.45;;
43676;SDS011;29275;48.800;18.102;2023-02-28T10:27:52;5.90;;;2.60;;
43676;SDS011;29275;48.800;18.102;2023-02-28T10:30:56;6.82;;;3.33;;
43676;SDS011;29275;48.800;18.102;2023-02-28T10:34:00;8.45;;;3.40;;
43676;SDS011;29275;48.800;18.102;2023-02-28T10:37:05;4.43;;;2.30;;
43676;SDS011;29275;48.800;18.102;2023-02-28T10:43:22;6.65;;;2.75;;
43676;SDS011;29275;48.800;18.102;2023-02-28T10:46:26;7.38;;;3.35;;
43676;SDS011;29275;48.800;18.102;2023-02-28T10:49:32;10.48;;;3.67;;
43676;SDS011;29275;48.800;18.102;2023-02-28T10:52:37;6.95;;;2.95;;
43676;SDS011;29275;48.800;18.102;2023-02-28T10:55:44;7.78;;;3.90;;
43676;SDS011;29275;48.800;18.102;2023-02-28T11:02:31;8.35;;;3.78;;
43676;SDS011;29275;48.800;18.102;2023-02-28T11:09:14;7.50;;;3.15;;
43676;SDS011;29275;48.800;18.102;2023-02-28T11:12:20;9.20;;;3.55;;
43676;SDS011;29275;48.800;18.102;2023-02-28T11:15:33;5.85;;;3.45;;
43676;SDS011;29275;48.800;18.102;2023-02-28T11:21:59;8.10;;;3.42;;
43676;SDS011;29275;48.800;18.102;2023-02-28T11:25:25;6.70;;;3.55;;
43676;SDS011;29275;48.800;18.102;2023-02-28T11:28:30;5.38;;;3.28;;
43676;SDS011;29275;48.800;18.102;2023-02-28T11:31:35;6.47;;;3.25;;
43676;SDS011;29275;48.800;18.102;2023-02-28T11:34:38;7.20;;;3.80;;
43676;SDS011;29275;48.800;18.102;2023-02-28T11:37:42;6.18;;;3.20;;
43676;SDS011;29275;48.800;18.102;2023-02-28T11:44:09;8.32;;;3.47;;
43676;SDS011;29275;48.800;18.102;2023-02-28T12:07:20;9.48;;;3.80;;
43676;SDS011;29275;48.800;18.102;2023-02-28T12:10:37;5.80;;;3.30;;
43676;SDS011;29275;48.800;18.102;2023-02-28T12:17:20;7.10;;;3.78;;
43676;SDS011;29275;48.800;18.102;2023-02-28T12:27:05;9.65;;;4.32;;
43676;SDS011;29275;48.800;18.102;2023-02-28T12:30:15;10.73;;;3.88;;
43676;SDS011;29275;48.800;18.102;2023-02-28T12:33:21;9.48;;;4.80;;
43676;SDS011;29275;48.800;18.102;2023-02-28T12:36:26;7.03;;;4.18;;
43676;SDS011;29275;48.800;18.102;2023-02-28T12:39:32;6.85;;;3.65;;
43676;SDS011;29275;48.800;18.102;2023-02-28T12:42:51;9.90;;;4.53;;
43676;SDS011;29275;48.800;18.102;2023-02-28T12:46:11;8.50;;;3.80;;
43676;SDS011;29275;48.800;18.102;2023-02-28T12:49:30;5.90;;;3.83;;
43676;SDS011;29275;48.800;18.102;2023-02-28T12:52:51;8.90;;;4.18;;
43676;SDS011;29275;48.800;18.102;2023-02-28T13:09:15;8.02;;;3.58;;
43676;SDS011;29275;48.800;18.102;2023-02-28T13:12:18;9.23;;;4.00;;
43676;SDS011;29275;48.800;18.102;2023-02-28T13:15:24;11.25;;;4.43;;
43676;SDS011;29275;48.800;18.102;2023-02-28T13:24:52;6.55;;;3.63;;
43676;SDS011;29275;48.800;18.102;2023-02-28T13:27:57;5.85;;;3.38;;
43676;SDS011;29275;48.800;18.102;2023-02-28T13:31:04;6.43;;;3.33;;
43676;SDS011;29275;48.800;18.102;2023-02-28T13:34:14;7.20;;;3.72;;
43676;SDS011;29275;48.800;18.102;2023-02-28T13:37:42;7.45;;;3.47;;
43676;SDS011;29275;48.800;18.102;2023-02-28T13:40:44;7.22;;;4.03;;
43676;SDS011;29275;48.800;18.102;2023-02-28T13:47:22;8.15;;;3.53;;
43676;SDS011;29275;48.800;18.102;2023-02-28T13:53:41;9.15;;;3.40;;
43676;SDS011;29275;48.800;18.102;2023-02-28T14:06:54;7.55;;;3.78;;
43676;SDS011;29275;48.800;18.102;2023-02-28T14:09:59;13.30;;;5.00;;
43676;SDS011;29275;48.800;18.102;2023-02-28T14:16:47;12.10;;;4.40;;
43676;SDS011;29275;48.800;18.102;2023-02-28T14:19:52;6.43;;;3.65;;
43676;SDS011;29275;48.800;18.102;2023-02-28T14:32:41;5.97;;;3.58;;
43676;SDS011;29275;48.800;18.102;2023-02-28T14:39:16;8.70;;;4.68;;
43676;SDS011;29275;48.800;18.102;2023-02-28T14:42:35;10.48;;;4.68;;
43676;SDS011;29275;48.800;18.102;2023-02-28T14:45:49;5.40;;;3.22;;
43676;SDS011;29275;48.800;18.102;2023-02-28T14:48:56;7.20;;;3.38;;
43676;SDS011;29275;48.800;18.102;2023-02-28T14:55:16;6.15;;;3.67;;
43676;SDS011;29275;48.800;18.102;2023-02-28T15:01:28;8.30;;;3.70;;
43676;SDS011;29275;48.800;18.102;2023-02-28T15:04:31;5.63;;;3.03;;
43676;SDS011;29275;48.800;18.102;2023-02-28T15:07:36;7.03;;;3.08;;
43676;SDS011;29275;48.800;18.102;2023-02-28T15:10:39;7.40;;;3.88;;
43676;SDS011;29275;48.800;18.102;2023-02-28T15:13:55;8.02;;;4.07;;
43676;SDS011;29275;48.800;18.102;2023-02-28T15:16:59;6.82;;;3.22;;
43676;SDS011;29275;48.800;18.102;2023-02-28T15:20:10;9.93;;;4.25;;
43676;SDS011;29275;48.800;18.102;2023-02-28T15:23:15;8.05;;;3.85;;
43676;SDS011;29275;48.800;18.102;2023-02-28T15:26:19;10.52;;;3.67;;
43676;SDS011;29275;48.800;18.102;2023-02-28T15:29:24;7.70;;;3.78;;
43676;SDS011;29275;48.800;18.102;2023-02-28T15:32:33;8.25;;;4.35;;
43676;SDS011;29275;48.800;18.102;2023-02-28T15:35:38;10.57;;;3.25;;
43676;SDS011;29275;48.800;18.102;2023-02-28T15:38:41;7.00;;;3.72;;
43676;SDS011;29275;48.800;18.102;2023-02-28T15:41:44;9.40;;;4.53;;
43676;SDS011;29275;48.800;18.102;2023-02-28T15:44:47;8.80;;;3.97;;
43676;SDS011;29275;48.800;18.102;2023-02-28T15:47:50;11.52;;;5.90;;
43676;SDS011;29275;48.800;18.102;2023-02-28T15:51:16;7.90;;;5.03;;
43676;SDS011;29275;48.800;18.102;2023-02-28T15:54:21;8.80;;;3.78;;
43676;SDS011;29275;48.800;18.102;2023-02-28T15:57:28;11.60;;;3.80;;
43676;SDS011;29275;48.800;18.102;2023-02-28T16:00:31;22.00;;;11.07;;
43676;SDS011;29275;48.800;18.102;2023-02-28T16:03:42;12.75;;;4.43;;
43676;SDS011;29275;48.800;18.102;2023-02-28T16:07:01;8.88;;;4.07;;
43676;SDS011;29275;48.800;18.102;2023-02-28T16:10:08;23.33;;;10.48;;
43676;SDS011;29275;48.800;18.102;2023-02-28T16:13:13;29.27;;;12.68;;
43676;SDS011;29275;48.800;18.102;2023-02-28T16:16:18;14.82;;;6.75;;
43676;SDS011;29275;48.800;18.102;2023-02-28T16:19:22;9.70;;;4.32;;
43676;SDS011;29275;48.800;18.102;2023-02-28T16:22:26;7.65;;;2.97;;
43676;SDS011;29275;48.800;18.102;2023-02-28T16:25:33;7.00;;;3.75;;
43676;SDS011;29275;48.800;18.102;2023-02-28T16:28:39;8.15;;;3.55;;
43676;SDS011;29275;48.800;18.102;2023-02-28T16:31:41;7.15;;;3.47;;
43676;SDS011;29275;48.800;18.102;2023-02-28T16:34:44;12.10;;;4.90;;
43676;SDS011;29275;48.800;18.102;2023-02-28T16:37:47;21.10;;;10.05;;
43676;SDS011;29275;48.800;18.102;2023-02-28T16:40:50;10.10;;;5.85;;
43676;SDS011;29275;48.800;18.102;2023-02-28T16:43:54;4.88;;;2.80;;
43676;SDS011;29275;48.800;18.102;2023-02-28T16:47:03;9.75;;;4.80;;
43676;SDS011;29275;48.800;18.102;2023-02-28T16:50:12;45.75;;;21.02;;
43676;SDS011;29275;48.800;18.102;2023-02-28T16:53:22;22.17;;;12.13;;
43676;SDS011;29275;48.800;18.102;2023-02-28T16:56:25;21.27;;;10.85;;
43676;SDS011;29275;48.800;18.102;2023-02-28T16:59:28;11.15;;;3.92;;
43676;SDS011;29275;48.800;18.102;2023-02-28T17:02:31;11.07;;;5.47;;
43676;SDS011;29275;48.800;18.102;2023-02-28T17:05:36;10.00;;;4.82;;
43676;SDS011;29275;48.800;18.102;2023-02-28T17:08:40;11.93;;;7.50;;
43676;SDS011;29275;48.800;18.102;2023-02-28T17:11:43;13.88;;;6.65;;
43676;SDS011;29275;48.800;18.102;2023-02-28T17:14:46;9.05;;;5.25;;
43676;SDS011;29275;48.800;18.102;2023-02-28T17:17:49;10.65;;;5.15;;
43676;SDS011;29275;48.800;18.102;2023-02-28T17:20:53;8.80;;;4.15;;
43676;SDS011;29275;48.800;18.102;2023-02-28T17:23:55;29.30;;;15.38;;
43676;SDS011;29275;48.800;18.102;2023-02-28T17:26:58;21.88;;;12.85;;
43676;SDS011;29275;48.800;18.102;2023-02-28T17:30:02;27.85;;;15.02;;
43676;SDS011;29275;48.800;18.102;2023-02-28T17:33:23;37.47;;;25.73;;
43676;SDS011;29275;48.800;18.102;2023-02-28T17:36:26;48.15;;;31.38;;
43676;SDS011;29275;48.800;18.102;2023-02-28T17:39:30;39.75;;;26.02;;
43676;SDS011;29275;48.800;18.102;2023-02-28T17:42:33;26.90;;;18.17;;
43676;SDS011;29275;48.800;18.102;2023-02-28T17:45:36;18.85;;;10.95;;
43676;SDS011;29275;48.800;18.102;2023-02-28T17:48:39;20.40;;;12.25;;
43676;SDS011;29275;48.800;18.102;2023-02-28T17:51:42;16.45;;;5.63;;
43676;SDS011;29275;48.800;18.102;2023-02-28T17:54:45;10.88;;;4.88;;
43676;SDS011;29275;48.800;18.102;2023-02-28T17:57:48;24.63;;;12.45;;
43676;SDS011;29275;48.800;18.102;2023-02-28T18:00:51;21.13;;;9.52;;
43676;SDS011;29275;48.800;18.102;2023-02-28T18:03:56;28.73;;;13.40;;
43676;SDS011;29275;48.800;18.102;2023-02-28T18:06:59;21.60;;;11.20;;
43676;SDS011;29275;48.800;18.102;2023-02-28T18:10:02;18.27;;;11.32;;
43676;SDS011;29275;48.800;18.102;2023-02-28T18:13:06;15.95;;;8.48;;
43676;SDS011;29275;48.800;18.102;2023-02-28T18:16:10;12.48;;;8.68;;
43676;SDS011;29275;48.800;18.102;2023-02-28T18:19:13;38.60;;;20.02;;
43676;SDS011;29275;48.800;18.102;2023-02-28T18:22:18;14.00;;;9.48;;
43676;SDS011;29275;48.800;18.102;2023-02-28T18:25:21;8.10;;;4.32;;
43676;SDS011;29275;48.800;18.102;2023-02-28T18:28:25;9.45;;;4.00;;
43676;SDS011;29275;48.800;18.102;2023-02-28T18:31:31;9.32;;;4.20;;
43676;SDS011;29275;48.800;18.102;2023-02-28T18:34:35;6.97;;;3.88;;
43676;SDS011;29275;48.800;18.102;2023-02-28T18:37:40;8.23;;;3.35;;
43676;SDS011;29275;48.800;18.102;2023-02-28T18:40:50;12.45;;;6.30;;
43676;SDS011;29275;48.800;18.102;2023-02-28T18:43:57;16.67;;;4.22;;
43676;SDS011;29275;48.800;18.102;2023-02-28T18:47:19;10.63;;;4.57;;
43676;SDS011;29275;48.800;18.102;2023-02-28T18:50:27;14.35;;;9.32;;
43676;SDS011;29275;48.800;18.102;2023-02-28T18:53:34;13.15;;;7.68;;
43676;SDS011;29275;48.800;18.102;2023-02-28T18:56:38;19.38;;;7.93;;
43676;SDS011;29275;48.800;18.102;2023-02-28T18:59:41;14.18;;;8.38;;
43676;SDS011;29275;48.800;18.102;2023-02-28T19:02:44;13.02;;;6.80;;
43676;SDS011;29275;48.800;18.102;2023-02-28T19:05:47;27.33;;;15.88;;
43676;SDS011;29275;48.800;18.102;2023-02-28T19:08:52;20.08;;;10.77;;
43676;SDS011;29275;48.800;18.102;2023-02-28T19:11:57;10.35;;;4.47;;
43676;SDS011;29275;48.800;18.102;2023-02-28T19:15:00;7.38;;;4.55;;
43676;SDS011;29275;48.800;18.102;2023-02-28T19:18:04;11.57;;;6.82;;
43676;SDS011;29275;48.800;18.102;2023-02-28T19:21:08;12.45;;;7.35;;
43676;SDS011;29275;48.800;18.102;2023-02-28T19:24:14;8.53;;;3.63;;
43676;SDS011;29275;48.800;18.102;2023-02-28T19:27:17;6.40;;;3.20;;
43676;SDS011;29275;48.800;18.102;2023-02-28T19:30:23;6.88;;;3.85;;
43676;SDS011;29275;48.800;18.102;2023-02-28T19:33:27;9.23;;;4.85;;
43676;SDS011;29275;48.800;18.102;2023-02-28T19:36:30;6.90;;;3.00;;
43676;SDS011;29275;48.800;18.102;2023-02-28T19:39:33;5.43;;;3.50;;
43676;SDS011;29275;48.800;18.102;2023-02-28T19:42:42;4.65;;;2.47;;
43676;SDS011;29275;48.800;18.102;2023-02-28T19:45:45;6.90;;;3.50;;
43676;SDS011;29275;48.800;18.102;2023-02-28T19:48:48;6.50;;;4.38;;
43676;SDS011;29275;48.800;18.102;2023-02-28T19:51:54;6.80;;;4.93;;
43676;SDS011;29275;48.800;18.102;2023-02-28T19:54:57;10.15;;;4.38;;
43676;SDS011;29275;48.800;18.102;2023-02-28T19:58:00;9.75;;;4.00;;
43676;SDS011;29275;48.800;18.102;2023-02-28T20:01:09;8.60;;;4.57;;
43676;SDS011;29275;48.800;18.102;2023-02-28T20:04:17;14.02;;;5.28;;
43676;SDS011;29275;48.800;18.102;2023-02-28T20:07:20;7.38;;;4.15;;
43676;SDS011;29275;48.800;18.102;2023-02-28T20:10:24;7.03;;;3.83;;
43676;SDS011;29275;48.800;18.102;2023-02-28T20:13:31;7.70;;;3.10;;
43676;SDS011;29275;48.800;18.102;2023-02-28T20:16:35;14.20;;;4.63;;
43676;SDS011;29275;48.800;18.102;2023-02-28T20:19:38;7.05;;;4.28;;
43676;SDS011;29275;48.800;18.102;2023-02-28T20:22:43;10.98;;;4.57;;
43676;SDS011;29275;48.800;18.102;2023-02-28T20:25:47;9.93;;;4.00;;
43676;SDS011;29275;48.800;18.102;2023-02-28T20:28:53;9.50;;;4.25;;
43676;SDS011;29275;48.800;18.102;2023-02-28T20:31:56;21.08;;;7.53;;
43676;SDS011;29275;48.800;18.102;2023-02-28T20:34:59;16.48;;;5.40;;
43676;SDS011;29275;48.800;18.102;2023-02-28T20:38:02;9.75;;;5.97;;
43676;SDS011;29275;48.800;18.102;2023-02-28T20:41:05;9.63;;;5.13;;